Time;durP1;ratioP1;P1;durP2;ratioP2;P2;SDS_P1;SDS_P2;PMS_P1;PMS_P2;Temp;Humidity;BMP_temperature;BMP_pressure;BME280_temperature;BME280_humidity;BME280_pressure;Samples;Min_cycle;Max_cycle;Signal;HPM_P1;HPM_P2
2022/08/30 00:03:20;;;;;;;20.55;8.85;;;;;;;19.47;79.70;98370.72;5031008;28;20103;-60
2022/08/30 00:05:47;;;;;;;17.25;9.63;;;;;;;19.46;79.85;98366.47;5031532;28;20065;-60
2022/08/30 00:08:12;;;;;;;18.20;9.43;;;;;;;19.44;80.02;98369.50;5030092;28;20037;-61
2022/08/30 00:10:39;;;;;;;18.10;9.35;;;;;;;19.41;80.10;98372.00;5031646;28;20051;-61
2022/08/30 00:13:06;;;;;;;21.60;9.38;;;;;;;19.34;80.49;98367.13;5031130;28;20053;-60
2022/08/30 00:15:32;;;;;;;18.77;9.70;;;;;;;19.30;80.50;98376.94;5031251;28;20497;-59
2022/08/30 00:17:57;;;;;;;19.45;9.65;;;;;;;19.29;80.61;98383.41;5031295;28;20126;-61
2022/08/30 00:20:28;;;;;;;18.88;9.70;;;;;;;19.26;80.58;98379.47;5030827;28;20502;-60
2022/08/30 00:22:53;;;;;;;18.58;9.88;;;;;;;19.22;81.02;98383.91;5029703;28;20041;-60
2022/08/30 00:25:20;;;;;;;17.00;9.50;;;;;;;19.19;81.11;98379.16;5013430;28;20068;-59
2022/08/30 00:27:47;;;;;;;19.48;9.82;;;;;;;19.17;81.72;98380.59;5029609;28;20091;-59
2022/08/30 00:30:13;;;;;;;18.02;9.98;;;;;;;19.15;81.59;98382.78;5030894;28;20042;-60
2022/08/30 00:32:39;;;;;;;17.90;10.20;;;;;;;19.12;81.90;98384.25;5029641;28;20056;-59
2022/08/30 00:35:08;;;;;;;20.60;9.60;;;;;;;19.12;81.94;98380.75;5030584;28;20494;-58
2022/08/30 00:37:34;;;;;;;21.67;10.75;;;;;;;19.05;81.83;98373.97;5021768;28;20112;-59
2022/08/30 00:40:00;;;;;;;23.98;10.65;;;;;;;19.02;82.38;98379.97;5023252;28;20045;-60
2022/08/30 00:42:26;;;;;;;18.50;10.55;;;;;;;18.96;82.75;98383.13;5029757;28;20042;-61
2022/08/30 00:44:52;;;;;;;20.67;9.93;;;;;;;18.93;82.61;98383.78;5030925;28;20065;-60
2022/08/30 00:47:18;;;;;;;15.65;9.18;;;;;;;18.87;82.95;98371.63;5031038;28;20053;-62
2022/08/30 00:49:46;;;;;;;19.08;9.60;;;;;;;18.81;83.07;98374.44;5030828;28;20484;-60
2022/08/30 00:52:11;;;;;;;21.50;10.23;;;;;;;18.81;83.39;98376.34;5030981;28;20041;-60
2022/08/30 00:54:38;;;;;;;16.83;9.98;;;;;;;18.77;83.38;98370.84;5030279;28;20095;-59
2022/08/30 00:57:04;;;;;;;19.55;9.93;;;;;;;18.74;83.69;98358.03;5030632;28;20492;-61
2022/08/30 00:59:30;;;;;;;19.58;9.73;;;;;;;18.72;83.63;98364.78;5029455;28;20096;-60
2022/08/30 01:01:56;;;;;;;18.30;10.75;;;;;;;18.69;83.91;98360.84;5029126;28;20045;-61
2022/08/30 01:04:23;;;;;;;23.80;9.82;;;;;;;18.65;84.06;98367.16;5031113;28;20483;-60
2022/08/30 01:06:49;;;;;;;18.08;10.07;;;;;;;18.62;84.29;98365.91;5030814;28;20136;-59
2022/08/30 01:09:15;;;;;;;17.38;10.05;;;;;;;18.57;84.76;98361.47;5032199;28;20456;-60
2022/08/30 01:11:42;;;;;;;16.98;10.35;;;;;;;18.55;84.49;98366.34;5034301;28;20498;-59
2022/08/30 01:14:10;;;;;;;20.85;11.00;;;;;;;18.53;84.64;98360.53;5032005;28;20041;-62
2022/08/30 01:16:37;;;;;;;23.35;10.05;;;;;;;18.50;84.60;98368.41;5034460;28;20049;-62
2022/08/30 01:19:05;;;;;;;17.20;9.80;;;;;;;18.48;84.87;98359.91;5033169;28;20044;-61
2022/08/30 01:21:40;;;;;;;19.73;10.70;;;;;;;18.46;85.20;98360.19;5032636;28;20045;-61
2022/08/30 01:24:06;;;;;;;18.27;12.50;;;;;;;18.47;84.90;98358.28;5032953;28;20038;-61
2022/08/30 01:26:34;;;;;;;22.58;10.60;;;;;;;18.42;84.85;98351.19;5032852;28;20485;-62
2022/08/30 01:29:04;;;;;;;20.27;10.93;;;;;;;18.41;85.08;98352.28;5033260;28;20045;-61
2022/08/30 01:31:31;;;;;;;18.52;11.32;;;;;;;18.38;85.33;98351.03;5032923;28;20050;-61
2022/08/30 01:33:58;;;;;;;19.73;10.13;;;;;;;18.36;85.37;98341.72;5033759;28;20144;-60
2022/08/30 01:36:24;;;;;;;18.45;10.63;;;;;;;18.30;85.45;98341.09;5016758;28;20041;-60
2022/08/30 01:38:55;;;;;;;17.02;10.30;;;;;;;18.29;85.64;98341.38;5034438;28;20049;-60
2022/08/30 01:41:30;;;;;;;21.50;10.70;;;;;;;18.25;85.84;98340.44;5033747;28;20037;-59
2022/08/30 01:43:59;;;;;;;17.52;10.57;;;;;;;18.20;85.63;98345.94;5034222;28;20120;-61
2022/08/30 01:46:28;;;;;;;21.92;11.45;;;;;;;18.19;86.33;98347.06;5033727;28;20124;-61
2022/08/30 01:48:55;;;;;;;23.95;10.85;;;;;;;18.17;86.24;98352.72;5032603;28;20049;-59
2022/08/30 01:51:23;;;;;;;20.13;10.93;;;;;;;18.14;86.23;98347.97;5033647;28;20067;-59
2022/08/30 01:53:49;;;;;;;20.05;11.77;;;;;;;18.12;86.50;98355.56;5032143;28;20045;-60
2022/08/30 01:56:15;;;;;;;20.48;10.88;;;;;;;18.08;86.34;98343.88;5032747;28;20045;-59
2022/08/30 01:58:41;;;;;;;18.25;10.65;;;;;;;18.07;86.51;98345.78;5034018;28;20042;-61
2022/08/30 02:01:11;;;;;;;19.88;10.75;;;;;;;18.08;86.56;98352.69;5032300;28;20537;-60
2022/08/30 02:03:38;;;;;;;19.83;10.43;;;;;;;18.09;86.39;98353.50;5032017;28;20112;-59
2022/08/30 02:06:06;;;;;;;23.85;11.05;;;;;;;18.06;86.44;98349.56;5016176;28;20068;-60
2022/08/30 02:08:32;;;;;;;22.73;11.95;;;;;;;18.01;86.48;98347.00;5015919;28;20114;-59
2022/08/30 02:10:58;;;;;;;17.95;10.95;;;;;;;18.00;86.78;98345.44;5033793;28;20048;-62
2022/08/30 02:13:28;;;;;;;18.55;11.20;;;;;;;17.97;86.32;98348.75;5033300;28;20037;-59
2022/08/30 02:15:54;;;;;;;19.80;11.10;;;;;;;17.93;86.91;98345.09;5033547;28;20046;-60
2022/08/30 02:18:21;;;;;;;22.85;11.38;;;;;;;17.88;87.01;98345.22;5032928;28;20063;-60
2022/08/30 02:20:47;;;;;;;20.00;10.68;;;;;;;17.85;87.21;98343.16;5031187;28;20048;-61
2022/08/30 02:23:12;;;;;;;21.00;11.50;;;;;;;17.79;87.25;98344.41;5014881;28;20033;-60
2022/08/30 02:25:39;;;;;;;19.13;11.30;;;;;;;17.77;87.28;98346.59;5031981;28;20115;-60
2022/08/30 02:28:05;;;;;;;18.00;11.55;;;;;;;17.71;87.23;98348.63;5033183;28;20460;-60
2022/08/30 02:30:31;;;;;;;21.75;11.50;;;;;;;17.67;87.67;98351.13;5033478;28;20034;-61
2022/08/30 02:32:56;;;;;;;21.48;10.68;;;;;;;17.65;87.85;98355.22;5032706;28;20128;-60
2022/08/30 02:35:22;;;;;;;19.70;11.35;;;;;;;17.62;88.03;98363.88;5033022;28;20033;-61
2022/08/30 02:37:48;;;;;;;20.08;12.13;;;;;;;17.61;88.22;98357.72;5031865;28;20054;-61
2022/08/30 02:40:14;;;;;;;20.05;11.40;;;;;;;17.57;88.13;98359.44;5033256;28;20041;-61
2022/08/30 02:42:40;;;;;;;22.15;12.10;;;;;;;17.54;88.45;98357.38;5033106;28;20406;-63
2022/08/30 02:45:07;;;;;;;20.20;12.23;;;;;;;17.53;88.43;98357.66;5032849;28;20132;-60
2022/08/30 02:47:33;;;;;;;23.42;11.82;;;;;;;17.54;88.27;98370.78;5032645;28;20045;-61
2022/08/30 02:49:58;;;;;;;19.60;11.52;;;;;;;17.54;88.12;98369.97;5032919;28;20037;-62
2022/08/30 02:52:24;;;;;;;20.48;12.65;;;;;;;17.53;88.25;98371.88;5032818;28;20465;-61
2022/08/30 02:54:50;;;;;;;18.85;12.32;;;;;;;17.52;88.32;98364.91;5030654;28;20033;-61
2022/08/30 02:57:15;;;;;;;18.83;12.38;;;;;;;17.53;88.36;98360.34;5033016;28;20407;-59
2022/08/30 02:59:44;;;;;;;19.63;11.63;;;;;;;17.53;88.28;98365.72;5032780;28;20067;-59
2022/08/30 03:02:10;;;;;;;22.63;12.43;;;;;;;17.50;88.11;98356.41;5031561;28;20060;-60
2022/08/30 03:04:38;;;;;;;18.90;12.48;;;;;;;17.49;88.47;98360.19;5031039;28;20513;-61
2022/08/30 03:07:05;;;;;;;18.08;12.50;;;;;;;17.53;88.28;98363.03;5031197;28;20465;-59
2022/08/30 03:09:31;;;;;;;27.25;12.85;;;;;;;17.57;87.86;98351.41;5032418;28;20037;-60
2022/08/30 03:11:57;;;;;;;18.88;11.90;;;;;;;17.66;87.40;98362.16;5030972;28;20041;-59
2022/08/30 03:14:23;;;;;;;19.90;12.60;;;;;;;17.66;87.38;98365.63;5031052;28;20121;-60
2022/08/30 03:16:49;;;;;;;21.33;12.00;;;;;;;17.67;86.93;98364.50;5030955;28;20041;-61
2022/08/30 03:19:14;;;;;;;19.08;12.30;;;;;;;17.70;87.02;98368.47;5032200;28;20103;-62
2022/08/30 03:21:40;;;;;;;19.88;12.63;;;;;;;17.75;86.77;98370.22;5030465;28;20042;-60
2022/08/30 03:24:06;;;;;;;19.23;11.57;;;;;;;17.79;86.57;98369.31;5032292;28;20061;-60
2022/08/30 03:26:32;;;;;;;22.80;12.15;;;;;;;17.97;85.96;98370.19;5031956;28;20059;-60
2022/08/30 03:28:58;;;;;;;17.27;11.95;;;;;;;18.17;84.80;98368.81;5030349;28;20049;-60
2022/08/30 03:31:23;;;;;;;21.90;12.13;;;;;;;18.32;83.67;98378.31;5031433;28;20030;-60
2022/08/30 03:33:49;;;;;;;20.30;11.65;;;;;;;18.45;83.07;98377.41;5032177;28;20442;-61
2022/08/30 03:36:15;;;;;;;18.58;11.57;;;;;;;18.59;82.28;98372.69;5031804;28;20038;-59
2022/08/30 03:38:41;;;;;;;18.80;12.38;;;;;;;18.80;81.45;98375.56;5030773;28;20041;-60
2022/08/30 03:41:07;;;;;;;23.55;11.18;;;;;;;19.00;80.10;98381.38;5031823;28;20045;-60
2022/08/30 03:43:33;;;;;;;17.98;11.07;;;;;;;19.20;79.16;98379.94;5030607;28;20042;-60
2022/08/30 03:46:00;;;;;;;18.67;10.93;;;;;;;19.34;78.49;98383.25;5031539;28;20122;-61
2022/08/30 03:48:26;;;;;;;20.02;10.90;;;;;;;19.55;77.72;98382.56;5031692;28;20141;-61
2022/08/30 03:50:52;;;;;;;19.60;10.88;;;;;;;19.70;76.92;98388.22;5031706;28;20057;-60
2022/08/30 03:53:18;;;;;;;17.98;11.40;;;;;;;19.88;75.90;98390.84;5031866;28;20103;-61
2022/08/30 03:55:44;;;;;;;18.23;10.80;;;;;;;20.11;75.03;98394.06;5031231;28;20065;-60
2022/08/30 03:58:10;;;;;;;19.00;10.73;;;;;;;20.25;74.08;98404.63;5030369;28;20033;-61
2022/08/30 04:00:36;;;;;;;17.90;11.35;;;;;;;20.35;73.62;98396.97;5031910;28;20033;-60
2022/08/30 04:03:02;;;;;;;20.50;11.13;;;;;;;20.45;73.10;98395.00;5031322;28;20080;-61
2022/08/30 04:05:28;;;;;;;18.42;11.43;;;;;;;20.56;72.71;98394.34;5029924;28;20076;-60
2022/08/30 04:07:53;;;;;;;16.15;11.05;;;;;;;20.60;72.32;98392.53;5031678;28;20069;-62
2022/08/30 04:10:20;;;;;;;17.33;10.52;;;;;;;20.60;72.22;98395.25;5029807;28;20033;-61
2022/08/30 04:12:47;;;;;;;21.45;11.55;;;;;;;20.70;71.76;98396.75;4996336;28;20096;-62
2022/08/30 04:15:13;;;;;;;22.10;11.38;;;;;;;20.79;71.62;98402.06;5030164;28;20041;-60
2022/08/30 04:17:39;;;;;;;17.08;10.93;;;;;;;20.87;70.76;98401.22;5030904;28;20049;-60
2022/08/30 04:20:05;;;;;;;25.92;11.13;;;;;;;20.94;71.00;98398.81;5029874;28;20096;-61
2022/08/30 04:22:31;;;;;;;26.48;13.95;;;;;;;20.97;70.33;98403.53;5031076;28;20076;-59
2022/08/30 04:24:57;;;;;;;16.23;11.23;;;;;;;21.04;70.08;98409.16;5029519;28;20068;-60
2022/08/30 04:27:22;;;;;;;18.83;11.60;;;;;;;21.24;69.52;98404.88;5031184;28;20038;-62
2022/08/30 04:29:48;;;;;;;18.98;11.75;;;;;;;21.28;69.16;98405.78;5029812;28;20490;-62
2022/08/30 04:32:15;;;;;;;21.25;11.90;;;;;;;21.23;69.42;98408.66;5030715;28;20045;-59
2022/08/30 04:34:41;;;;;;;21.38;11.93;;;;;;;21.30;69.13;98406.22;5031106;28;20061;-61
2022/08/30 04:37:07;;;;;;;19.73;12.45;;;;;;;21.43;68.90;98411.69;5031182;28;20042;-63
2022/08/30 04:39:32;;;;;;;22.48;12.27;;;;;;;21.56;68.21;98407.91;5031044;28;20045;-61
2022/08/30 04:41:58;;;;;;;19.05;11.38;;;;;;;21.68;67.70;98402.53;5031221;28;20072;-62
2022/08/30 04:44:26;;;;;;;19.65;12.18;;;;;;;21.68;67.34;98394.47;5030611;28;20410;-61
2022/08/30 04:46:52;;;;;;;23.70;12.30;;;;;;;21.77;67.35;98397.84;5030648;28;20045;-61
2022/08/30 04:49:18;;;;;;;19.95;13.63;;;;;;;21.76;67.09;98398.94;5028896;28;20065;-62
2022/08/30 04:51:44;;;;;;;19.45;12.48;;;;;;;21.75;67.32;98400.06;5029080;28;20558;-61
2022/08/30 04:54:11;;;;;;;21.17;13.93;;;;;;;21.80;66.95;98398.28;5031044;28;20124;-61
2022/08/30 04:56:36;;;;;;;17.60;12.40;;;;;;;21.81;67.07;98399.88;5031153;28;20042;-60
2022/08/30 04:59:02;;;;;;;22.42;12.68;;;;;;;21.83;66.66;98395.72;5030979;28;20379;-59
2022/08/30 05:01:30;;;;;;;24.58;13.55;;;;;;;21.81;66.76;98397.94;5029533;28;20530;-62
2022/08/30 05:03:56;;;;;;;21.65;12.95;;;;;;;21.87;66.58;98399.28;5029824;28;20045;-60
2022/08/30 05:06:24;;;;;;;20.13;12.95;;;;;;;21.86;66.84;98403.13;5030171;28;20045;-61
2022/08/30 05:08:52;;;;;;;20.52;13.38;;;;;;;21.84;66.71;98397.28;5030407;28;20112;-60
2022/08/30 05:11:17;;;;;;;24.35;14.05;;;;;;;21.81;66.61;98402.56;5031164;28;20049;-60
2022/08/30 05:13:43;;;;;;;19.60;14.20;;;;;;;21.72;66.76;98399.97;5030884;28;20402;-59
2022/08/30 05:16:09;;;;;;;22.58;13.73;;;;;;;21.59;67.48;98407.25;5030143;28;20499;-60
2022/08/30 05:18:36;;;;;;;20.88;15.13;;;;;;;21.56;67.44;98402.53;5029304;28;20045;-59
2022/08/30 05:21:08;;;;;;;26.80;14.50;;;;;;;21.51;67.75;98406.22;5030261;28;20049;-59
2022/08/30 05:23:35;;;;;;;21.48;14.25;;;;;;;21.58;68.06;98399.47;5009175;28;20423;-57
2022/08/30 05:26:17;;;;;;;20.65;14.02;;;;;;;21.71;67.70;98395.69;5027162;28;20045;-57
2022/08/30 05:28:43;;;;;;;21.17;14.55;;;;;;;21.81;66.98;98395.25;5030569;28;20033;-59
2022/08/30 05:31:20;;;;;;;23.65;14.23;;;;;;;21.92;66.57;98395.59;5030592;28;20056;-60
2022/08/30 05:33:47;;;;;;;23.15;14.75;;;;;;;21.92;66.65;98401.78;5027380;28;20057;-59
2022/08/30 05:36:14;;;;;;;21.00;14.43;;;;;;;22.03;66.43;98404.03;5030119;28;20049;-59
2022/08/30 05:38:40;;;;;;;25.50;15.90;;;;;;;22.10;65.71;98401.56;5030177;28;20597;-60
2022/08/30 05:41:06;;;;;;;21.80;14.90;;;;;;;22.10;65.91;98401.56;5029337;28;20056;-57
2022/08/30 05:43:32;;;;;;;21.95;14.93;;;;;;;22.14;65.47;98405.94;5029832;28;20037;-60
2022/08/30 05:46:07;;;;;;;24.25;15.65;;;;;;;22.19;65.38;98413.84;5025837;28;20501;-60
2022/08/30 05:48:33;;;;;;;24.30;14.75;;;;;;;22.21;64.97;98403.50;5024372;28;20050;-58
2022/08/30 05:51:10;;;;;;;22.05;15.50;;;;;;;22.25;65.27;98408.22;5015410;28;20099;-59
2022/08/30 05:53:37;;;;;;;24.48;16.00;;;;;;;22.33;64.37;98412.72;5026377;28;20045;-58
2022/08/30 05:56:05;;;;;;;22.42;15.43;;;;;;;22.34;64.41;98415.06;5025377;28;20042;-59
2022/08/30 05:58:31;;;;;;;23.90;15.85;;;;;;;22.40;64.03;98412.94;5029071;28;20572;-59
2022/08/30 06:00:57;;;;;;;21.38;15.02;;;;;;;22.41;64.02;98412.59;5013919;28;20057;-59
2022/08/30 06:03:24;;;;;;;24.27;16.13;;;;;;;22.46;63.64;98414.28;5029568;28;20377;-58
2022/08/30 06:05:49;;;;;;;26.27;16.88;;;;;;;22.48;63.54;98413.94;5009068;28;20079;-58
2022/08/30 06:08:20;;;;;;;23.08;15.57;;;;;;;22.55;63.26;98417.63;4981538;28;20046;-59
2022/08/30 06:10:45;;;;;;;18.98;15.52;;;;;;;22.63;63.02;98424.03;5021434;28;20042;-60
2022/08/30 06:13:13;;;;;;;20.98;15.50;;;;;;;22.69;62.73;98422.69;5031726;28;20037;-60
2022/08/30 06:15:38;;;;;;;23.30;15.40;;;;;;;22.74;62.31;98427.06;5030410;28;20045;-59
2022/08/30 06:18:05;;;;;;;22.67;16.15;;;;;;;22.82;62.70;98420.72;5024372;28;20470;-61
2022/08/30 06:20:31;;;;;;;23.25;15.70;;;;;;;22.93;61.84;98421.84;5022947;28;20045;-61
2022/08/30 06:22:57;;;;;;;22.92;15.25;;;;;;;22.97;61.41;98417.34;5028579;28;20498;-60
2022/08/30 06:25:22;;;;;;;22.95;15.75;;;;;;;23.03;61.44;98420.59;5030251;28;20055;-60
2022/08/30 06:27:48;;;;;;;21.42;15.75;;;;;;;23.05;60.81;98419.09;5032306;28;20568;-60
2022/08/30 06:30:14;;;;;;;23.38;15.80;;;;;;;23.05;60.57;98418.34;5029225;28;20442;-61
2022/08/30 06:32:40;;;;;;;25.77;15.80;;;;;;;23.07;60.20;98430.38;5029472;28;20045;-63
2022/08/30 06:35:06;;;;;;;24.92;15.52;;;;;;;23.13;60.55;98425.50;5024035;28;20099;-60
2022/08/30 06:37:33;;;;;;;23.33;16.08;;;;;;;23.11;60.02;98422.34;5012413;28;20046;-61
2022/08/30 06:39:59;;;;;;;19.58;14.75;;;;;;;23.25;59.68;98428.16;5026810;28;20072;-61
2022/08/30 06:42:30;;;;;;;21.10;15.85;;;;;;;23.32;59.94;98424.84;5026859;28;20403;-60
2022/08/30 06:45:00;;;;;;;23.70;15.80;;;;;;;23.35;59.73;98424.97;5022563;28;20500;-60
2022/08/30 06:47:27;;;;;;;23.35;15.80;;;;;;;23.36;59.62;98425.75;5027796;28;20034;-60
2022/08/30 06:49:53;;;;;;;29.20;16.08;;;;;;;23.42;59.36;98426.28;5030898;28;20042;-60
2022/08/30 06:52:18;;;;;;;22.90;15.57;;;;;;;23.49;58.87;98421.84;5030137;28;20044;-61
2022/08/30 06:54:44;;;;;;;19.98;16.00;;;;;;;23.54;58.53;98423.53;5029318;28;20422;-60
2022/08/30 06:57:11;;;;;;;24.42;15.25;;;;;;;23.52;58.37;98421.16;5014209;28;20049;-61
2022/08/30 06:59:38;;;;;;;22.08;14.65;;;;;;;23.52;57.23;98423.06;5017058;28;20033;-60
2022/08/30 07:02:05;;;;;;;22.60;15.98;;;;;;;23.61;57.44;98421.00;5028000;28;20046;-61
2022/08/30 07:04:30;;;;;;;24.08;15.80;;;;;;;23.66;57.58;98420.75;5031213;28;20485;-58
2022/08/30 07:06:56;;;;;;;21.13;15.38;;;;;;;23.67;56.01;98416.91;5020478;28;20084;-60
2022/08/30 07:09:22;;;;;;;21.52;15.15;;;;;;;23.56;56.27;98423.97;5011346;28;20076;-61
2022/08/30 07:11:48;;;;;;;20.85;15.88;;;;;;;23.41;57.32;98424.69;5026354;28;20052;-61
2022/08/30 07:14:13;;;;;;;22.75;16.17;;;;;;;23.45;57.45;98431.00;5029390;28;20443;-59
2022/08/30 07:16:39;;;;;;;24.10;15.35;;;;;;;23.54;56.92;98428.94;5030632;28;20045;-61
2022/08/30 07:19:05;;;;;;;25.55;14.95;;;;;;;23.64;56.68;98433.81;5031815;28;20049;-61
2022/08/30 07:21:33;;;;;;;24.15;15.25;;;;;;;23.71;56.88;98427.88;5031336;28;20077;-60
2022/08/30 07:23:59;;;;;;;19.98;14.57;;;;;;;23.75;56.33;98426.03;5030596;28;20044;-62
2022/08/30 07:26:28;;;;;;;22.15;15.60;;;;;;;23.70;56.67;98426.28;5030497;28;20044;-61
2022/08/30 07:28:54;;;;;;;18.55;15.73;;;;;;;23.79;56.53;98433.06;5030278;28;20037;-62
2022/08/30 07:31:20;;;;;;;24.27;14.35;;;;;;;23.91;56.10;98432.22;5026594;28;20072;-63
2022/08/30 07:33:46;;;;;;;20.85;13.98;;;;;;;23.89;55.98;98431.78;5026782;28;20410;-61
2022/08/30 07:36:13;;;;;;;20.17;13.48;;;;;;;23.99;55.40;98435.88;5024736;28;20136;-60
2022/08/30 07:38:39;;;;;;;22.52;15.05;;;;;;;24.01;54.87;98434.41;5024587;28;21111;-61
2022/08/30 07:41:05;;;;;;;22.83;15.32;;;;;;;24.06;54.60;98437.97;5024586;28;20103;-61
2022/08/30 07:43:32;;;;;;;18.10;14.30;;;;;;;24.09;54.39;98438.09;5010060;28;20407;-61
2022/08/30 07:46:04;;;;;;;21.73;15.63;;;;;;;24.04;54.80;98427.50;5025518;28;20045;-61
2022/08/30 07:48:30;;;;;;;21.73;14.75;;;;;;;24.12;53.99;98428.44;5020153;28;20045;-62
2022/08/30 07:50:56;;;;;;;20.63;14.45;;;;;;;24.21;53.82;98435.28;5034743;28;20414;-61
2022/08/30 07:53:22;;;;;;;21.65;14.48;;;;;;;24.29;54.90;98425.38;5037891;28;20041;-61
2022/08/30 07:55:47;;;;;;;20.05;14.65;;;;;;;24.37;54.65;98429.81;5025485;28;20049;-61
2022/08/30 07:58:22;;;;;;;21.33;14.52;;;;;;;24.44;54.90;98427.31;5027125;28;20057;-60
2022/08/30 08:00:48;;;;;;;18.58;14.57;;;;;;;24.53;54.75;98429.03;5027697;28;20470;-62
2022/08/30 08:03:14;;;;;;;19.05;14.80;;;;;;;24.57;54.15;98428.00;5025792;28;20188;-63
2022/08/30 08:05:41;;;;;;;18.98;14.55;;;;;;;24.62;54.54;98437.75;5026148;28;20056;-60
2022/08/30 08:08:08;;;;;;;22.58;14.32;;;;;;;24.66;54.20;98436.69;5024927;28;20045;-62
2022/08/30 08:10:35;;;;;;;21.50;14.65;;;;;;;24.70;53.96;98437.56;5025845;28;20220;-61
2022/08/30 08:13:01;;;;;;;22.50;14.48;;;;;;;24.76;54.16;98440.00;5025220;28;20045;-61
2022/08/30 08:15:27;;;;;;;26.58;15.00;;;;;;;24.84;54.08;98439.78;5024562;28;20071;-61
2022/08/30 08:17:53;;;;;;;23.27;14.60;;;;;;;24.91;53.59;98436.44;5008403;28;20045;-60
2022/08/30 08:20:19;;;;;;;22.77;14.23;;;;;;;24.91;52.01;98439.16;5026315;28;20429;-60
2022/08/30 08:22:45;;;;;;;26.48;15.68;;;;;;;25.01;51.95;98440.53;5024383;28;20133;-61
2022/08/30 08:25:10;;;;;;;21.05;14.63;;;;;;;25.08;51.69;98429.81;5027131;28;20481;-61
2022/08/30 08:27:36;;;;;;;21.40;15.10;;;;;;;25.07;52.33;98429.03;5025086;28;20049;-61
2022/08/30 08:30:03;;;;;;;20.33;14.52;;;;;;;25.15;52.56;98432.72;5026769;28;20115;-61
2022/08/30 08:32:29;;;;;;;19.00;15.43;;;;;;;25.19;51.72;98428.13;5023260;28;20108;-60
2022/08/30 08:34:55;;;;;;;19.50;15.10;;;;;;;25.24;51.82;98422.44;5026125;28;20057;-62
2022/08/30 08:37:20;;;;;;;20.17;14.90;;;;;;;25.24;52.08;98422.44;5026705;28;20046;-60
2022/08/30 08:39:46;;;;;;;26.05;15.68;;;;;;;25.30;52.11;98426.41;5026107;28;20042;-61
2022/08/30 08:42:49;;;;;;;20.83;15.00;;;;;;;25.36;50.27;98424.19;5026204;28;20056;-61
2022/08/30 08:45:50;;;;;;;19.70;14.60;;;;;;;25.42;49.66;98420.06;5027424;28;20353;-61
2022/08/30 08:48:30;;;;;;;21.52;13.57;;;;;;;25.42;48.62;98427.41;5026591;28;20363;-61
2022/08/30 08:53:44;;;;;;;19.90;14.57;;;;;;;25.42;48.41;98433.63;5027769;28;20471;-61
2022/08/30 08:56:13;;;;;;;18.63;14.60;;;;;;;25.42;47.36;98422.00;5026227;28;20045;-61
2022/08/30 08:58:42;;;;;;;17.60;13.73;;;;;;;25.40;47.46;98433.19;4993860;28;20457;-60
2022/08/30 09:01:10;;;;;;;20.38;14.18;;;;;;;25.41;47.58;98428.53;5029418;28;20152;-59
2022/08/30 09:03:36;;;;;;;17.95;13.45;;;;;;;25.45;47.58;98432.91;5029141;28;20039;-62
2022/08/30 09:06:18;;;;;;;23.98;14.25;;;;;;;25.48;47.76;98434.09;5029519;28;20289;-61
2022/08/30 09:08:44;;;;;;;15.77;14.02;;;;;;;25.48;47.33;98434.09;5028983;28;20576;-62
2022/08/30 09:11:15;;;;;;;20.70;14.15;;;;;;;25.48;47.63;98437.59;5027018;28;20037;-62
2022/08/30 09:13:41;;;;;;;21.73;14.32;;;;;;;25.55;47.80;98437.72;5027425;28;20099;-60
2022/08/30 09:16:07;;;;;;;21.38;13.90;;;;;;;25.56;47.34;98441.22;5029327;28;20071;-60
2022/08/30 09:18:45;;;;;;;18.92;13.70;;;;;;;25.58;47.51;98445.13;5025894;28;20052;-61
2022/08/30 09:21:13;;;;;;;19.65;14.75;;;;;;;25.57;47.47;98445.50;5027158;28;20132;-60
2022/08/30 09:23:48;;;;;;;19.08;14.15;;;;;;;25.58;47.48;98439.72;5026951;28;20495;-61
2022/08/30 09:26:15;;;;;;;18.15;13.80;;;;;;;25.61;47.37;98441.72;5025336;28;20053;-60
2022/08/30 09:28:47;;;;;;;18.25;13.10;;;;;;;25.67;46.58;98444.13;5028439;28;20116;-62
2022/08/30 09:31:47;;;;;;;20.63;13.50;;;;;;;25.77;46.69;98447.03;5031998;28;20137;-61
2022/08/30 09:34:19;;;;;;;17.90;13.70;;;;;;;25.78;46.27;98451.31;5020592;28;20049;-61
2022/08/30 09:36:50;;;;;;;19.08;13.20;;;;;;;25.89;46.24;98453.47;5032903;28;20041;-61
2022/08/30 09:39:15;;;;;;;19.55;13.35;;;;;;;25.94;46.21;98445.81;5029790;28;20419;-61
2022/08/30 09:41:43;;;;;;;21.92;13.95;;;;;;;25.98;45.72;98432.28;5030460;28;20056;-60
2022/08/30 09:44:14;;;;;;;21.35;13.35;;;;;;;26.03;45.93;98443.63;5031423;28;20447;-60
2022/08/30 09:46:47;;;;;;;17.33;13.60;;;;;;;26.07;45.61;98435.53;5027331;28;20044;-61
2022/08/30 09:49:39;;;;;;;20.15;12.52;;;;;;;26.12;45.48;98439.88;5031496;28;20147;-61
2022/08/30 09:52:42;;;;;;;17.67;13.10;;;;;;;26.13;45.51;98442.22;5030811;28;20095;-61
2022/08/30 09:55:13;;;;;;;16.38;12.98;;;;;;;26.15;45.74;98441.84;5030580;28;20576;-62
2022/08/30 09:57:56;;;;;;;17.33;12.68;;;;;;;26.08;45.17;98442.53;5031251;28;20184;-62
2022/08/30 10:00:27;;;;;;;14.27;12.00;;;;;;;26.07;44.03;98443.69;5029525;28;20041;-61
2022/08/30 10:02:56;;;;;;;19.35;13.20;;;;;;;26.12;44.89;98439.88;5030092;28;20052;-62
2022/08/30 10:05:42;;;;;;;14.53;12.57;;;;;;;26.21;44.34;98429.56;5031242;28;20124;-62
2022/08/30 10:08:23;;;;;;;19.40;12.82;;;;;;;26.37;44.37;98441.03;5010835;28;20280;-62
2022/08/30 10:10:49;;;;;;;17.55;12.95;;;;;;;26.45;43.99;98436.50;5028784;28;20049;-62
2022/08/30 10:13:33;;;;;;;14.60;11.60;;;;;;;26.49;43.94;98437.34;5026691;28;20060;-61
2022/08/30 10:16:21;;;;;;;20.67;12.60;;;;;;;26.50;43.95;98425.34;5029371;28;20080;-61
2022/08/30 10:19:17;;;;;;;13.93;11.82;;;;;;;26.47;43.68;98434.19;5027991;28;20049;-62
2022/08/30 10:21:51;;;;;;;16.77;11.55;;;;;;;26.50;43.13;98439.72;5012000;28;20046;-61
2022/08/30 10:24:20;;;;;;;22.10;12.25;;;;;;;26.48;43.21;98425.69;5028728;28;20148;-61
2022/08/30 10:26:52;;;;;;;17.27;11.63;;;;;;;26.48;43.67;98430.34;5011192;28;20471;-61
2022/08/30 10:29:24;;;;;;;19.80;11.43;;;;;;;26.57;43.27;98438.25;5029213;28;20041;-60
2022/08/30 10:31:58;;;;;;;19.35;12.02;;;;;;;26.67;42.46;98440.34;5027531;28;20045;-61
2022/08/30 10:34:30;;;;;;;18.00;11.63;;;;;;;26.78;42.11;98435.81;5027139;28;20057;-60
2022/08/30 10:37:01;;;;;;;16.20;11.27;;;;;;;26.88;42.13;98432.44;5026294;28;20450;-61
2022/08/30 10:39:31;;;;;;;18.67;11.68;;;;;;;26.91;42.33;98437.19;5028797;28;20091;-59
2022/08/30 10:42:07;;;;;;;23.85;11.07;;;;;;;27.03;41.75;98430.72;5029543;28;20224;-62
2022/08/30 10:44:37;;;;;;;15.40;11.45;;;;;;;27.14;41.59;98431.59;5031299;28;20099;-61
2022/08/30 10:47:09;;;;;;;16.23;10.45;;;;;;;27.24;40.43;98441.09;5010983;28;20461;-60
2022/08/30 10:49:38;;;;;;;15.15;10.95;;;;;;;27.28;40.11;98431.03;5013348;28;20041;-61
2022/08/30 10:52:07;;;;;;;16.27;10.10;;;;;;;27.31;40.11;98432.22;5031334;28;20515;-61
2022/08/30 10:54:51;;;;;;;12.90;10.00;;;;;;;27.36;39.94;98432.66;5032045;28;20037;-61
2022/08/30 10:57:25;;;;;;;14.43;9.27;;;;;;;27.43;39.86;98436.63;4983624;28;20042;-61
2022/08/30 11:00:06;;;;;;;15.85;10.05;;;;;;;27.44;38.89;98432.72;5010045;28;20041;-61
2022/08/30 11:02:43;;;;;;;15.52;10.57;;;;;;;27.38;38.13;98427.66;5025401;28;20072;-60
2022/08/30 11:05:27;;;;;;;13.38;10.00;;;;;;;27.38;38.12;98427.66;5033072;28;20065;-61
2022/08/30 11:08:16;;;;;;;16.05;9.70;;;;;;;27.41;36.82;98434.25;5032790;28;20136;-59
2022/08/30 11:10:51;;;;;;;17.02;10.20;;;;;;;27.37;36.76;98439.66;5029645;28;20042;-60
2022/08/30 11:13:22;;;;;;;11.85;9.98;;;;;;;27.39;38.27;98434.66;5013418;28;20095;-61
2022/08/30 11:15:58;;;;;;;21.25;10.50;;;;;;;27.34;38.27;98426.81;5018040;28;20056;-59
2022/08/30 11:18:25;;;;;;;17.65;11.80;;;;;;;27.36;38.82;98424.50;5031622;28;20073;-60
2022/08/30 11:20:53;;;;;;;19.25;11.15;;;;;;;27.35;39.21;98424.88;5025641;28;20045;-59
2022/08/30 11:23:19;;;;;;;15.77;10.88;;;;;;;27.33;39.32;98422.53;5010052;28;20041;-60
2022/08/30 11:25:58;;;;;;;16.20;11.60;;;;;;;27.36;38.27;98421.00;5024134;28;20454;-60
2022/08/30 11:28:36;;;;;;;15.45;11.38;;;;;;;27.43;38.76;98426.50;5031422;28;20037;-60